Time;durP1;ratioP1;P1;durP2;ratioP2;P2;SDS_P1;SDS_P2;PMS_P1;PMS_P2;Temp;Humidity;BMP_temperature;BMP_pressure;BME280_temperature;BME280_humidity;BME280_pressure;Samples;Min_cycle;Max_cycle;Signal;HPM_P1;HPM_P2
2022/07/13 00:02:23;;;;;;;17.50;11.48;;;23.50;71.80;;;;;;5099855;28;20528;-72
2022/07/13 00:04:49;;;;;;;19.30;12.00;;;23.50;71.80;;;;;;5117531;28;20027;-72
2022/07/13 00:07:14;;;;;;;17.75;12.70;;;23.40;72.00;;;;;;5117625;28;20046;-72
2022/07/13 00:09:40;;;;;;;18.23;12.80;;;23.40;72.20;;;;;;5117451;28;20059;-72
2022/07/13 00:12:06;;;;;;;16.60;12.68;;;23.40;72.00;;;;;;5117391;28;20032;-72
2022/07/13 00:14:32;;;;;;;16.50;11.93;;;23.40;71.70;;;;;;5117315;28;20047;-72
2022/07/13 00:16:57;;;;;;;14.00;11.10;;;23.40;71.80;;;;;;5099382;28;20032;-72
2022/07/13 00:19:23;;;;;;;16.25;11.25;;;23.30;72.60;;;;;;5117181;28;20028;-72
2022/07/13 00:21:49;;;;;;;16.67;11.90;;;23.20;72.00;;;;;;5117195;28;20150;-72
2022/07/13 00:24:15;;;;;;;17.23;11.18;;;23.20;71.90;;;;;;5117160;28;20012;-72
2022/07/13 00:26:41;;;;;;;14.95;11.27;;;23.20;72.20;;;;;;5099170;28;20095;-72
2022/07/13 00:29:06;;;;;;;16.55;12.32;;;23.20;72.30;;;;;;5116990;28;20024;-72
2022/07/13 00:31:32;;;;;;;16.90;11.68;;;23.10;72.10;;;;;;5099050;28;20028;-72
2022/07/13 00:33:57;;;;;;;18.83;11.80;;;23.00;71.70;;;;;;5116976;28;20035;-72
2022/07/13 00:36:23;;;;;;;18.80;12.13;;;23.00;71.80;;;;;;5117053;28;20031;-72
2022/07/13 00:38:49;;;;;;;17.00;11.80;;;23.00;72.00;;;;;;5116874;28;20032;-72
2022/07/13 00:41:14;;;;;;;16.98;12.32;;;22.90;72.30;;;;;;5116765;28;20032;-72
2022/07/13 00:43:40;;;;;;;17.27;12.02;;;22.90;72.70;;;;;;5116765;28;20032;-72
2022/07/13 00:46:05;;;;;;;17.58;11.43;;;22.90;72.90;;;;;;5099056;28;20031;-72
2022/07/13 00:48:33;;;;;;;16.40;11.50;;;22.90;72.70;;;;;;5098823;28;20028;-72
2022/07/13 00:50:59;;;;;;;16.15;10.93;;;22.90;72.50;;;;;;5116622;28;20092;-72
2022/07/13 00:53:25;;;;;;;17.08;10.95;;;22.90;72.10;;;;;;5116608;28;20023;-72
2022/07/13 00:55:51;;;;;;;15.85;11.52;;;23.00;72.60;;;;;;5116539;28;20016;-72
2022/07/13 00:58:17;;;;;;;19.70;11.50;;;23.00;71.60;;;;;;5115475;28;20067;-72
2022/07/13 01:00:44;;;;;;;17.10;10.45;;;22.90;71.70;;;;;;5097334;28;20024;-72
2022/07/13 01:03:10;;;;;;;15.57;10.25;;;22.90;71.80;;;;;;5115174;28;20021;-72
2022/07/13 01:05:36;;;;;;;14.43;10.30;;;22.90;71.70;;;;;;5097379;28;20161;-72
2022/07/13 01:08:04;;;;;;;16.58;10.90;;;22.90;71.70;;;;;;5097237;28;20028;-72
2022/07/13 01:10:30;;;;;;;15.48;10.73;;;22.90;71.90;;;;;;5114679;28;20032;-72
2022/07/13 01:12:56;;;;;;;13.88;10.02;;;22.80;72.20;;;;;;5097088;28;20024;-72
2022/07/13 01:15:22;;;;;;;15.80;10.45;;;22.80;72.20;;;;;;5097140;28;20043;-72
2022/07/13 01:17:48;;;;;;;16.27;10.10;;;22.80;72.70;;;;;;5114962;28;20058;-72
2022/07/13 01:20:17;;;;;;;17.23;10.02;;;22.80;72.80;;;;;;5096924;28;20032;-72
2022/07/13 01:22:45;;;;;;;13.50;9.60;;;22.80;72.50;;;;;;5114910;28;20024;-72
2022/07/13 01:25:12;;;;;;;13.68;9.50;;;22.80;72.30;;;;;;5096980;28;20088;-72
2022/07/13 01:27:39;;;;;;;13.38;10.02;;;22.80;72.10;;;;;;5114821;28;20043;-72
2022/07/13 01:30:06;;;;;;;14.45;9.90;;;22.80;71.80;;;;;;5114712;28;20024;-72
2022/07/13 01:32:49;;;;;;;13.60;9.65;;;22.80;72.00;;;;;;5114781;28;20035;-72
2022/07/13 01:35:15;;;;;;;12.35;9.55;;;22.90;71.80;;;;;;5114723;28;20024;-72
2022/07/13 01:37:42;;;;;;;13.15;9.35;;;22.90;71.70;;;;;;5114634;28;20024;-72
2022/07/13 01:40:09;;;;;;;14.13;9.23;;;22.90;72.00;;;;;;5114519;28;20028;-72
2022/07/13 01:42:43;;;;;;;13.15;9.43;;;22.90;72.00;;;;;;5114571;28;20027;-72
2022/07/13 01:45:09;;;;;;;14.00;9.85;;;22.90;71.70;;;;;;5114568;28;20020;-72
2022/07/13 01:47:39;;;;;;;13.57;9.20;;;22.90;71.80;;;;;;5114525;28;20030;-72
2022/07/13 01:50:06;;;;;;;11.68;8.38;;;22.90;71.90;;;;;;5114467;28;20032;-72
2022/07/13 01:52:33;;;;;;;11.60;8.65;;;22.90;71.70;;;;;;5114411;28;20483;-72
2022/07/13 01:54:58;;;;;;;11.15;8.13;;;22.90;71.60;;;;;;5096880;28;20048;-72
2022/07/13 01:57:24;;;;;;;15.53;8.33;;;22.80;71.70;;;;;;5058180;28;1084630;-73
2022/07/13 01:59:51;;;;;;;11.10;8.35;;;22.80;71.60;;;;;;5115400;28;20282;-73
2022/07/13 02:02:16;;;;;;;14.18;7.80;;;22.80;71.20;;;;;;5115239;28;20022;-72
2022/07/13 02:04:42;;;;;;;13.38;7.97;;;22.70;71.00;;;;;;5097448;28;20028;-72
2022/07/13 02:07:08;;;;;;;11.65;8.60;;;22.60;71.00;;;;;;5115126;28;20020;-72
2022/07/13 02:09:34;;;;;;;10.20;7.95;;;22.60;71.20;;;;;;5115250;28;20036;-72
2022/07/13 02:11:59;;;;;;;9.80;7.35;;;22.60;71.40;;;;;;5115180;28;20035;-73
2022/07/13 02:14:25;;;;;;;10.43;8.07;;;22.50;71.20;;;;;;5097245;28;20471;-73
2022/07/13 02:16:50;;;;;;;9.38;7.43;;;22.50;71.20;;;;;;5114973;28;20032;-72
2022/07/13 02:19:16;;;;;;;10.68;7.50;;;22.50;70.70;;;;;;5114868;28;20028;-73
2022/07/13 02:21:42;;;;;;;10.30;7.32;;;22.50;70.70;;;;;;5114732;28;20028;-72
2022/07/13 02:24:07;;;;;;;11.68;7.97;;;22.50;71.20;;;;;;5096315;28;20032;-72
2022/07/13 02:26:33;;;;;;;10.52;7.78;;;22.50;71.10;;;;;;5114897;28;20083;-72
2022/07/13 02:28:58;;;;;;;9.75;7.13;;;22.50;71.30;;;;;;5114684;28;20078;-73
2022/07/13 02:31:24;;;;;;;11.55;7.50;;;22.60;71.30;;;;;;5114700;28;20039;-73
2022/07/13 02:33:49;;;;;;;13.45;7.80;;;22.50;70.90;;;;;;5114774;28;20032;-72
2022/07/13 02:36:15;;;;;;;10.75;7.72;;;22.50;71.30;;;;;;5114596;28;20032;-73
2022/07/13 02:38:41;;;;;;;13.18;8.07;;;22.50;71.80;;;;;;5114554;28;20035;-73
2022/07/13 02:41:06;;;;;;;9.10;7.18;;;22.50;71.50;;;;;;5096468;28;20032;-73
2022/07/13 02:43:32;;;;;;;10.10;7.63;;;22.50;71.80;;;;;;5079745;28;20028;-73
2022/07/13 02:45:58;;;;;;;11.75;7.55;;;22.50;71.60;;;;;;5114452;28;20054;-72
2022/07/13 02:48:24;;;;;;;10.93;7.40;;;22.50;71.20;;;;;;5096600;28;20024;-73
2022/07/13 02:50:49;;;;;;;11.55;7.70;;;22.50;71.60;;;;;;5114330;28;20105;-72
2022/07/13 02:53:15;;;;;;;11.45;7.38;;;22.50;71.80;;;;;;5114302;28;20028;-73
2022/07/13 02:55:40;;;;;;;9.38;7.18;;;22.60;71.50;;;;;;5096511;28;20028;-72
2022/07/13 02:58:06;;;;;;;9.50;7.47;;;22.60;71.40;;;;;;5113957;28;20060;-73
2022/07/13 03:00:32;;;;;;;10.43;7.03;;;22.50;71.10;;;;;;5096323;28;20039;-72
2022/07/13 03:02:57;;;;;;;9.15;7.30;;;22.50;70.70;;;;;;5114151;28;20536;-72
2022/07/13 03:05:23;;;;;;;10.88;7.25;;;22.40;71.20;;;;;;5114090;28;20054;-72
2022/07/13 03:07:50;;;;;;;9.73;7.40;;;22.40;71.30;;;;;;5114071;28;20406;-73
2022/07/13 03:10:16;;;;;;;9.15;7.22;;;22.50;71.50;;;;;;5113994;28;20028;-72
2022/07/13 03:12:42;;;;;;;10.80;7.07;;;22.40;71.20;;;;;;5096195;28;20028;-72
2022/07/13 03:15:08;;;;;;;9.18;7.10;;;22.40;71.00;;;;;;5113915;28;20024;-72
2022/07/13 03:17:33;;;;;;;10.85;6.88;;;22.30;70.70;;;;;;5113839;28;20395;-73
2022/07/13 03:19:59;;;;;;;10.80;7.50;;;22.30;70.40;;;;;;5095943;28;20032;-72
2022/07/13 03:22:25;;;;;;;10.38;7.20;;;22.30;70.60;;;;;;5113975;28;20032;-73
2022/07/13 03:24:50;;;;;;;11.73;7.13;;;22.30;70.30;;;;;;5113780;28;20028;-72
2022/07/13 03:27:16;;;;;;;10.77;7.07;;;22.30;70.10;;;;;;5113891;28;20024;-73
2022/07/13 03:29:42;;;;;;;9.82;7.47;;;22.20;70.20;;;;;;5113692;28;20039;-72
2022/07/13 03:32:07;;;;;;;10.35;7.10;;;22.10;70.20;;;;;;5095745;28;20036;-72
2022/07/13 03:34:33;;;;;;;11.93;8.02;;;22.10;70.50;;;;;;5095741;28;20024;-73
2022/07/13 03:36:58;;;;;;;10.93;7.05;;;22.00;71.00;;;;;;5113619;28;20028;-72
2022/07/13 03:39:24;;;;;;;10.40;7.28;;;21.80;71.50;;;;;;5113657;28;20028;-72
2022/07/13 03:41:50;;;;;;;10.13;7.15;;;21.80;71.50;;;;;;5113581;28;20024;-72
2022/07/13 03:44:15;;;;;;;11.10;7.35;;;21.80;71.40;;;;;;5113684;28;20020;-73
2022/07/13 03:46:41;;;;;;;14.20;7.40;;;21.80;71.30;;;;;;5113514;28;20036;-72
2022/07/13 03:49:06;;;;;;;11.02;7.68;;;21.70;71.50;;;;;;5095684;28;20051;-72
2022/07/13 03:51:32;;;;;;;10.15;7.68;;;21.60;71.60;;;;;;5113599;28;20032;-72
2022/07/13 03:53:57;;;;;;;12.10;8.02;;;21.50;71.60;;;;;;5113444;28;20035;-72
2022/07/13 03:56:23;;;;;;;11.35;8.13;;;21.50;72.00;;;;;;5095612;28;20024;-72
2022/07/13 03:58:49;;;;;;;12.63;8.02;;;21.30;71.90;;;;;;5078596;28;20059;-72
2022/07/13 04:01:16;;;;;;;10.57;7.43;;;21.30;72.10;;;;;;5113301;28;20043;-72
2022/07/13 04:03:42;;;;;;;14.75;8.20;;;21.20;72.30;;;;;;5079088;28;20368;-72
2022/07/13 04:06:07;;;;;;;11.43;7.63;;;21.20;71.80;;;;;;5113326;28;20054;-72
2022/07/13 04:08:33;;;;;;;12.23;6.78;;;21.20;71.90;;;;;;5113340;28;20051;-72
2022/07/13 04:10:59;;;;;;;12.70;7.78;;;21.30;72.10;;;;;;5113316;28;20073;-72
2022/07/13 04:13:24;;;;;;;10.48;6.85;;;21.30;71.60;;;;;;5113258;28;20028;-73
2022/07/13 04:15:50;;;;;;;11.55;7.57;;;21.40;71.10;;;;;;5113356;28;20088;-72
2022/07/13 04:18:15;;;;;;;10.25;6.55;;;21.40;70.50;;;;;;5113261;28;20032;-72
2022/07/13 04:20:41;;;;;;;10.57;7.00;;;21.50;70.20;;;;;;5095408;28;20056;-73
2022/07/13 04:23:07;;;;;;;10.30;6.65;;;21.60;69.80;;;;;;5113178;28;20032;-73
2022/07/13 04:25:32;;;;;;;11.02;7.00;;;21.60;69.60;;;;;;5113283;28;20087;-73
2022/07/13 04:27:58;;;;;;;9.70;6.60;;;21.70;69.10;;;;;;5095292;28;20024;-73
2022/07/13 04:30:23;;;;;;;11.18;6.95;;;21.70;68.80;;;;;;5113117;28;20032;-73
2022/07/13 04:32:49;;;;;;;12.80;6.78;;;21.70;68.90;;;;;;5113077;28;20039;-72
2022/07/13 04:35:15;;;;;;;11.35;7.05;;;21.70;68.60;;;;;;5113111;28;20028;-73
2022/07/13 04:37:41;;;;;;;10.75;6.47;;;21.80;68.50;;;;;;5113034;28;20024;-73
2022/07/13 04:40:07;;;;;;;10.68;6.82;;;21.80;68.50;;;;;;5112982;28;20035;-73
2022/07/13 04:42:33;;;;;;;9.40;6.35;;;21.80;68.10;;;;;;5113009;28;20052;-73
2022/07/13 04:44:58;;;;;;;8.45;5.53;;;21.90;67.70;;;;;;5112981;28;20031;-73
2022/07/13 04:47:24;;;;;;;11.70;5.95;;;21.90;67.40;;;;;;5116246;28;20028;-73
2022/07/13 04:49:50;;;;;;;9.25;5.78;;;21.90;67.40;;;;;;5116634;28;20032;-73
2022/07/13 04:52:16;;;;;;;9.20;6.20;;;22.00;67.40;;;;;;5116611;28;20028;-73
2022/07/13 04:54:41;;;;;;;7.80;5.60;;;22.00;67.20;;;;;;5116584;28;20028;-73
2022/07/13 04:57:07;;;;;;;11.20;5.90;;;22.00;67.20;;;;;;5116478;28;20038;-73
2022/07/13 04:59:32;;;;;;;10.23;5.68;;;22.10;67.30;;;;;;5116487;28;20090;-73
2022/07/13 05:01:58;;;;;;;15.20;5.82;;;22.10;67.20;;;;;;5081886;28;20028;-73
2022/07/13 05:04:24;;;;;;;7.40;5.32;;;22.10;67.00;;;;;;5098546;28;20031;-73
2022/07/13 05:06:49;;;;;;;7.82;5.45;;;22.10;66.80;;;;;;5098346;28;20031;-73
2022/07/13 05:09:15;;;;;;;7.57;5.32;;;22.10;66.80;;;;;;5116319;28;20063;-73
2022/07/13 05:11:41;;;;;;;9.10;5.30;;;22.20;66.60;;;;;;5098357;28;20054;-73
2022/07/13 05:14:06;;;;;;;9.10;5.10;;;22.20;66.40;;;;;;5116227;28;20036;-71
2022/07/13 05:16:32;;;;;;;7.50;4.68;;;22.20;66.40;;;;;;5116141;28;20032;-72
2022/07/13 05:18:58;;;;;;;7.25;4.35;;;22.30;66.20;;;;;;5098156;28;20032;-72
2022/07/13 05:21:24;;;;;;;9.60;4.82;;;22.30;66.00;;;;;;5115984;28;20035;-71
2022/07/13 05:23:49;;;;;;;7.20;4.85;;;22.30;65.80;;;;;;5116021;28;20024;-72
2022/07/13 05:26:15;;;;;;;10.05;5.00;;;22.30;66.70;;;;;;5115995;28;20024;-71
2022/07/13 05:28:42;;;;;;;6.90;4.63;;;22.40;65.60;;;;;;5115914;28;20020;-71
2022/07/13 05:31:08;;;;;;;7.10;4.60;;;22.40;65.70;;;;;;5115891;28;20040;-71
2022/07/13 05:33:33;;;;;;;6.43;4.90;;;22.40;65.30;;;;;;5098043;28;20028;-71
2022/07/13 05:36:04;;;;;;;8.00;5.15;;;22.40;65.30;;;;;;5115690;28;20067;-72
2022/07/13 05:38:29;;;;;;;7.55;4.88;;;22.50;65.50;;;;;;5115908;28;20025;-72
2022/07/13 05:40:55;;;;;;;8.73;5.03;;;22.50;65.60;;;;;;5115648;28;20034;-72
2022/07/13 05:43:21;;;;;;;6.45;4.60;;;22.50;65.50;;;;;;5115669;28;20023;-72
2022/07/13 05:45:47;;;;;;;7.15;4.60;;;22.50;65.50;;;;;;5115606;28;20506;-72
2022/07/13 05:48:12;;;;;;;8.23;4.78;;;22.60;65.40;;;;;;5115530;28;20035;-72
2022/07/13 05:50:38;;;;;;;7.07;4.82;;;22.60;65.50;;;;;;5115483;28;20036;-71
2022/07/13 05:53:03;;;;;;;7.78;4.45;;;22.60;65.30;;;;;;5115599;28;20055;-71
2022/07/13 05:55:29;;;;;;;6.65;3.78;;;22.70;64.80;;;;;;5115434;28;20032;-71
2022/07/13 05:57:54;;;;;;;5.63;3.83;;;22.70;64.50;;;;;;5096068;28;20056;-72
2022/07/13 06:00:20;;;;;;;6.40;3.25;;;22.70;64.60;;;;;;5115256;28;20082;-72
2022/07/13 06:02:46;;;;;;;6.18;4.00;;;22.70;64.60;;;;;;5097488;28;20031;-72
2022/07/13 06:05:11;;;;;;;6.20;3.58;;;22.80;65.00;;;;;;5115206;28;20032;-72
2022/07/13 06:07:37;;;;;;;5.95;3.60;;;22.80;65.00;;;;;;5115180;28;20033;-72
2022/07/13 06:10:04;;;;;;;5.82;3.60;;;22.70;65.00;;;;;;5115261;28;20110;-72
2022/07/13 06:12:30;;;;;;;5.63;3.97;;;22.70;64.60;;;;;;5115095;28;20031;-72
2022/07/13 06:14:56;;;;;;;6.50;3.40;;;22.80;64.80;;;;;;5115205;28;20020;-72
2022/07/13 06:17:22;;;;;;;7.13;3.70;;;22.80;64.40;;;;;;5114981;28;20379;-72
2022/07/13 06:19:49;;;;;;;8.93;3.10;;;22.80;64.30;;;;;;5080345;28;20024;-73
2022/07/13 06:22:15;;;;;;;6.20;3.63;;;22.90;64.40;;;;;;5114854;28;20027;-72
2022/07/13 06:24:41;;;;;;;5.97;3.50;;;22.90;64.60;;;;;;5114868;28;20024;-72
2022/07/13 06:27:08;;;;;;;6.57;3.80;;;22.90;64.70;;;;;;5114838;28;20044;-72
2022/07/13 06:29:33;;;;;;;7.47;4.00;;;23.00;64.90;;;;;;5096722;28;20031;-72
2022/07/13 06:31:59;;;;;;;6.22;3.80;;;23.00;65.00;;;;;;5114677;28;20048;-73
2022/07/13 06:34:25;;;;;;;5.47;3.75;;;23.00;64.70;;;;;;5114622;28;20024;-72
2022/07/13 06:36:51;;;;;;;5.85;3.45;;;23.00;64.80;;;;;;5096617;28;20030;-73
2022/07/13 06:39:17;;;;;;;8.68;3.80;;;23.10;64.40;;;;;;5114601;28;20028;-73
2022/07/13 06:41:43;;;;;;;5.82;3.38;;;23.10;64.50;;;;;;5114531;28;20020;-72
2022/07/13 06:44:09;;;;;;;7.75;4.43;;;23.10;64.90;;;;;;5114484;28;20050;-72
2022/07/13 06:47:05;;;;;;;5.25;3.55;;;23.20;65.10;;;;;;5114387;28;20032;-73
2022/07/13 06:49:39;;;;;;;6.07;3.63;;;23.20;64.40;;;;;;5012735;28;20034;-71
2022/07/13 06:52:05;;;;;;;7.47;3.78;;;23.20;64.10;;;;;;4997135;28;20072;-72
2022/07/13 06:54:30;;;;;;;6.85;3.85;;;23.20;63.90;;;;;;5057048;28;20056;-72
2022/07/13 06:56:58;;;;;;;5.78;3.67;;;23.20;64.00;;;;;;5114371;28;20032;-72
2022/07/13 06:59:24;;;;;;;4.93;3.83;;;23.30;64.00;;;;;;5112166;28;20075;-72
2022/07/13 07:01:50;;;;;;;6.43;3.58;;;23.40;63.40;;;;;;5114179;28;20028;-72
2022/07/13 07:04:15;;;;;;;6.28;3.38;;;23.40;63.30;;;;;;5114168;28;20020;-71
2022/07/13 07:06:41;;;;;;;6.88;3.95;;;23.40;62.90;;;;;;5114164;28;20027;-73
2022/07/13 07:09:07;;;;;;;7.80;3.90;;;23.50;62.10;;;;;;5095773;28;20024;-71
2022/07/13 07:11:32;;;;;;;8.70;4.22;;;23.60;61.90;;;;;;5114114;28;20039;-71
2022/07/13 07:13:58;;;;;;;7.22;3.75;;;23.60;61.50;;;;;;5096340;28;20032;-72
2022/07/13 07:16:23;;;;;;;6.57;3.72;;;23.60;61.30;;;;;;5096145;28;20035;-72
2022/07/13 07:18:49;;;;;;;7.13;3.75;;;23.70;61.30;;;;;;5113857;28;20032;-72
2022/07/13 07:21:15;;;;;;;6.30;4.32;;;23.80;61.50;;;;;;5113791;28;20051;-72
2022/07/13 07:23:40;;;;;;;8.18;4.05;;;23.80;61.20;;;;;;5113757;28;20032;-71
2022/07/13 07:26:06;;;;;;;7.88;4.00;;;23.80;60.80;;;;;;5113776;28;20032;-72
2022/07/13 07:28:31;;;;;;;8.40;4.25;;;23.90;61.00;;;;;;5113682;28;20024;-72
2022/07/13 07:30:57;;;;;;;9.80;3.67;;;23.90;60.70;;;;;;5113763;28;20036;-71
2022/07/13 07:33:23;;;;;;;18.77;14.32;;;24.00;60.90;;;;;;5113768;28;20036;-71
2022/07/13 07:35:48;;;;;;;8.10;4.13;;;24.00;60.70;;;;;;5113693;28;20031;-72
2022/07/13 07:38:14;;;;;;;12.10;7.25;;;24.10;61.30;;;;;;5113681;28;20055;-72
2022/07/13 07:40:39;;;;;;;6.78;4.22;;;24.10;60.40;;;;;;5095628;28;20046;-72
2022/07/13 07:43:05;;;;;;;9.35;4.97;;;24.10;59.90;;;;;;5113551;28;20092;-72
2022/07/13 07:45:30;;;;;;;8.57;4.80;;;24.10;59.70;;;;;;5113591;28;20099;-71
2022/07/13 07:47:56;;;;;;;6.15;4.10;;;24.20;60.50;;;;;;5095749;28;20028;-72
2022/07/13 07:50:22;;;;;;;10.95;5.13;;;24.30;61.00;;;;;;5113500;28;20036;-71
2022/07/13 07:52:47;;;;;;;5.00;3.47;;;24.50;61.00;;;;;;5113645;28;20028;-72
2022/07/13 07:55:13;;;;;;;6.97;3.95;;;24.70;60.80;;;;;;5113459;28;20036;-72
2022/07/13 07:57:47;;;;;;;7.10;4.03;;;24.80;60.40;;;;;;5095285;28;20044;-72
2022/07/13 08:00:14;;;;;;;11.98;7.20;;;24.80;59.60;;;;;;5113377;28;20038;-72
2022/07/13 08:02:40;;;;;;;8.43;4.10;;;24.80;59.40;;;;;;5113333;28;20021;-72
2022/07/13 08:05:07;;;;;;;10.15;4.57;;;24.70;58.20;;;;;;5113336;28;20072;-72
2022/07/13 08:07:32;;;;;;;6.43;4.43;;;24.70;59.00;;;;;;5113349;28;20028;-72
2022/07/13 08:09:58;;;;;;;6.00;3.47;;;24.80;59.40;;;;;;5113307;28;20043;-72
2022/07/13 08:12:24;;;;;;;5.20;3.78;;;24.80;58.90;;;;;;5113289;28;20020;-72
2022/07/13 08:14:49;;;;;;;7.13;4.20;;;24.90;59.00;;;;;;5078645;28;20051;-73
2022/07/13 08:17:15;;;;;;;6.78;4.45;;;25.00;58.50;;;;;;5113279;28;20024;-73
2022/07/13 08:19:40;;;;;;;6.50;4.18;;;25.10;58.30;;;;;;5113168;28;20032;-73
2022/07/13 08:22:06;;;;;;;13.60;9.35;;;25.20;59.30;;;;;;5116310;28;20020;-72
2022/07/13 08:24:32;;;;;;;8.88;4.70;;;25.30;60.00;;;;;;5117174;28;20028;-72
2022/07/13 08:26:57;;;;;;;8.88;4.25;;;25.50;58.60;;;;;;5117283;28;20039;-73
2022/07/13 08:29:23;;;;;;;6.80;3.63;;;25.50;58.40;;;;;;5117038;28;20024;-73
2022/07/13 08:31:48;;;;;;;7.00;4.82;;;25.60;58.20;;;;;;5117159;28;20039;-72
2022/07/13 08:39:44;;;;;;;6.75;4.47;;;25.60;58.10;;;;;;5117067;28;20146;-72
2022/07/13 08:42:12;;;;;;;8.35;4.80;;;25.60;58.10;;;;;;5116853;28;20020;-72
2022/07/13 08:44:38;;;;;;;6.72;4.43;;;25.60;57.50;;;;;;5116780;28;20031;-71
2022/07/13 08:47:06;;;;;;;6.93;4.20;;;25.70;58.20;;;;;;5116732;28;20024;-72
2022/07/13 08:49:32;;;;;;;8.20;4.85;;;25.70;58.60;;;;;;5116676;28;20386;-71
2022/07/13 08:51:58;;;;;;;8.45;4.40;;;25.70;59.00;;;;;;5098802;28;20035;-71
2022/07/13 08:54:24;;;;;;;7.00;4.35;;;25.80;58.90;;;;;;5116636;28;20024;-71
2022/07/13 08:56:50;;;;;;;5.30;3.58;;;25.80;58.70;;;;;;5116576;28;20054;-71
2022/07/13 08:59:16;;;;;;;7.75;4.68;;;25.80;60.10;;;;;;5116398;28;20063;-72
2022/07/13 09:01:41;;;;;;;5.95;4.53;;;25.80;59.80;;;;;;5116365;28;20088;-72
2022/07/13 09:04:20;;;;;;;5.93;4.60;;;25.80;58.10;;;;;;5116364;28;20035;-72
2022/07/13 09:09:39;;;;;;;9.18;4.85;;;25.80;57.70;;;;;;5101749;28;20039;-71
2022/07/13 09:12:29;;;;;;;6.38;4.00;;;25.80;57.80;;;;;;5115476;28;20060;-71
2022/07/13 09:15:06;;;;;;;7.25;4.38;;;25.80;58.10;;;;;;5098293;28;20023;-71
2022/07/13 09:17:33;;;;;;;5.05;4.30;;;25.80;58.70;;;;;;5116209;28;20024;-71
2022/07/13 09:20:20;;;;;;;6.25;4.40;;;25.80;58.70;;;;;;5116060;28;20016;-72
2022/07/13 09:22:52;;;;;;;8.52;4.20;;;26.00;58.80;;;;;;5116089;28;20061;-72
2022/07/13 09:25:37;;;;;;;6.80;3.80;;;26.00;58.00;;;;;;5116216;28;20026;-72
2022/07/13 09:28:07;;;;;;;7.75;3.80;;;26.10;58.20;;;;;;5116012;28;20046;-72
2022/07/13 09:30:35;;;;;;;5.63;3.55;;;26.10;57.10;;;;;;5098135;28;20062;-72
2022/07/13 09:33:01;;;;;;;5.80;3.28;;;26.20;57.50;;;;;;5115584;28;20039;-72
2022/07/13 09:35:44;;;;;;;5.20;3.30;;;26.20;56.00;;;;;;5115821;28;20024;-72
2022/07/13 09:38:28;;;;;;;5.95;3.03;;;26.30;55.90;;;;;;5115917;28;20020;-72
2022/07/13 09:40:54;;;;;;;5.32;2.80;;;26.30;55.50;;;;;;5097996;28;20054;-72
2022/07/13 09:46:11;;;;;;;5.55;3.45;;;26.50;54.60;;;;;;5115939;28;20058;-71
2022/07/13 09:48:38;;;;;;;6.38;3.58;;;26.50;55.30;;;;;;5115606;28;20020;-72
2022/07/13 09:51:05;;;;;;;5.43;3.58;;;26.60;55.40;;;;;;5115597;28;20028;-71
2022/07/13 09:53:32;;;;;;;5.97;3.20;;;26.60;54.40;;;;;;5098000;28;20059;-71
2022/07/13 09:56:04;;;;;;;3.70;2.85;;;26.60;53.40;;;;;;5115414;28;20031;-71
2022/07/13 09:58:49;;;;;;;4.07;3.30;;;26.70;53.10;;;;;;5093592;28;20048;-72
2022/07/13 10:01:17;;;;;;;6.68;3.20;;;26.70;52.50;;;;;;5093781;28;20041;-71
2022/07/13 10:03:44;;;;;;;5.45;3.63;;;26.60;52.70;;;;;;5094427;28;20027;-72
2022/07/13 10:06:09;;;;;;;5.50;3.35;;;26.70;53.70;;;;;;5094938;28;20027;-71
2022/07/13 10:08:38;;;;;;;6.15;3.58;;;26.70;52.40;;;;;;5093457;28;20016;-72
2022/07/13 10:11:04;;;;;;;5.70;3.03;;;26.70;52.30;;;;;;5093559;28;20099;-71
2022/07/13 10:13:30;;;;;;;5.55;3.58;;;26.70;53.30;;;;;;5094648;28;20058;-71
2022/07/13 10:15:56;;;;;;;5.07;3.05;;;26.80;52.90;;;;;;5094764;28;20032;-71
2022/07/13 10:18:30;;;;;;;4.63;2.65;;;26.70;53.60;;;;;;5094817;28;20028;-72
2022/07/13 10:21:08;;;;;;;3.35;2.63;;;26.80;51.00;;;;;;5094659;28;20032;-72
2022/07/13 10:23:37;;;;;;;4.25;2.40;;;26.70;50.10;;;;;;5094583;28;20062;-72
2022/07/13 10:26:02;;;;;;;4.38;2.88;;;26.80;48.80;;;;;;5094574;28;20028;-72
2022/07/13 10:28:28;;;;;;;5.28;2.75;;;26.90;48.50;;;;;;5076737;28;20048;-72
2022/07/13 10:30:54;;;;;;;5.32;2.70;;;26.90;49.10;;;;;;5094577;28;20031;-72
2022/07/13 10:33:26;;;;;;;5.18;3.03;;;27.00;50.70;;;;;;5094423;28;20059;-72
2022/07/13 10:35:53;;;;;;;;;;;27.20;49.10;;;;;;5094787;28;20054;-72
2022/07/13 10:38:27;;;;;;;4.72;2.70;;;27.30;48.50;;;;;;5094312;28;19904;-72
2022/07/13 10:41:21;;;;;;;3.97;2.50;;;27.20;48.20;;;;;;5094246;28;20024;-72
2022/07/13 10:44:14;;;;;;;3.40;2.08;;;27.30;46.00;;;;;;5093788;28;20027;-72
2022/07/13 10:46:47;;;;;;;3.53;2.35;;;27.30;46.90;;;;;;5093956;28;20052;-72
2022/07/13 10:49:38;;;;;;;4.72;2.35;;;27.30;46.40;;;;;;5094134;28;20028;-71
2022/07/13 10:52:22;;;;;;;3.50;2.55;;;27.30;46.90;;;;;;5094234;28;20046;-71
2022/07/13 10:57:32;;;;;;;5.50;3.13;;;27.00;47.20;;;;;;5093908;28;20092;-72
2022/07/13 11:00:03;;;;;;;4.28;2.78;;;27.10;48.60;;;;;;5112408;28;20048;-71
2022/07/13 11:02:43;;;;;;;3.47;2.37;;;27.20;48.80;;;;;;5114189;28;20024;-72
2022/07/13 11:05:09;;;;;;;5.15;2.38;;;27.30;48.20;;;;;;5114154;28;20028;-72
2022/07/13 11:07:46;;;;;;;3.55;2.30;;;27.30;47.50;;;;;;5114102;28;20023;-72
2022/07/13 11:10:21;;;;;;;3.05;2.28;;;27.40;47.00;;;;;;5114105;28;20086;-72
2022/07/13 11:13:12;;;;;;;3.75;2.35;;;27.50;47.70;;;;;;5114008;28;20048;-72
2022/07/13 11:15:55;;;;;;;3.38;2.17;;;27.60;45.90;;;;;;5114042;28;20027;-72
2022/07/13 11:18:20;;;;;;;;;;;27.70;45.90;;;;;;5114306;28;20039;-72
2022/07/13 11:20:59;;;;;;;3.17;1.92;;;27.60;46.20;;;;;;5113836;28;19908;-72
2022/07/13 11:26:40;;;;;;;4.05;2.05;;;27.60;45.60;;;;;;5113949;28;20031;-72
2022/07/13 11:29:24;;;;;;;3.35;2.35;;;27.60;45.60;;;;;;5113701;28;20031;-72
2022/07/13 11:32:01;;;;;;;2.97;1.90;;;27.80;46.10;;;;;;5113735;28;20047;-72
2022/07/13 11:34:27;;;;;;;5.85;2.13;;;27.90;45.20;;;;;;5095758;28;20024;-72
2022/07/13 11:36:55;;;;;;;2.10;1.65;;;28.00;44.90;;;;;;5113694;28;20070;-72
2022/07/13 11:39:27;;;;;;;3.03;2.00;;;28.00;45.40;;;;;;5113666;28;20027;-72
2022/07/13 11:41:54;;;;;;;3.13;2.10;;;28.10;44.70;;;;;;5113609;28;20032;-72
2022/07/13 11:44:22;;;;;;;6.18;2.30;;;28.20;44.20;;;;;;5113579;28;20022;-72
2022/07/13 11:46:50;;;;;;;2.53;2.00;;;28.40;44.40;;;;;;5096205;28;20028;-72
2022/07/13 11:49:15;;;;;;;3.40;2.00;;;28.40;43.40;;;;;;5113593;28;20024;-72
2022/07/13 11:51:45;;;;;;;2.03;1.65;;;28.50;42.50;;;;;;5113510;28;20035;-72
2022/07/13 11:54:19;;;;;;;2.42;1.70;;;28.50;43.00;;;;;;5113491;28;20506;-72
2022/07/13 11:56:48;;;;;;;4.50;1.92;;;28.60;42.70;;;;;;5099789;28;20020;-72
2022/07/13 11:59:36;;;;;;;2.75;2.05;;;28.50;42.60;;;;;;5117499;28;20051;-72
2022/07/13 12:02:08;;;;;;;3.70;2.00;;;28.60;43.40;;;;;;5117693;28;20088;-72
2022/07/13 12:04:34;;;;;;;4.18;2.10;;;28.70;42.70;;;;;;5117695;28;20024;-71
2022/07/13 12:07:23;;;;;;;2.92;2.20;;;28.70;43.40;;;;;;5099527;28;20031;-72
2022/07/13 12:09:57;;;;;;;3.03;2.38;;;28.80;42.80;;;;;;5117705;28;20024;-72
2022/07/13 12:12:25;;;;;;;3.75;2.35;;;28.90;43.60;;;;;;5117602;28;20029;-72
2022/07/13 12:14:52;;;;;;;4.05;2.72;;;29.00;44.10;;;;;;5117459;28;20013;-72
2022/07/13 12:17:18;;;;;;;5.80;3.00;;;29.10;44.40;;;;;;5117333;28;20047;-72
2022/07/13 12:19:44;;;;;;;3.20;2.20;;;29.00;45.30;;;;;;5117280;28;20092;-72
2022/07/13 12:22:10;;;;;;;3.47;2.10;;;29.20;43.80;;;;;;5117212;28;20019;-72
2022/07/13 12:24:42;;;;;;;4.13;2.53;;;29.20;42.30;;;;;;5117214;28;20024;-72
2022/07/13 12:27:08;;;;;;;3.45;2.22;;;29.20;41.60;;;;;;5117261;28;20027;-72
2022/07/13 12:29:34;;;;;;;6.53;2.60;;;29.10;42.40;;;;;;5117073;28;20089;-72
2022/07/13 12:32:01;;;;;;;2.42;2.22;;;28.90;42.10;;;;;;5117188;28;20048;-73
2022/07/13 12:34:27;;;;;;;3.33;2.15;;;28.70;42.50;;;;;;5117077;28;20021;-72
2022/07/13 12:36:53;;;;;;;2.97;1.98;;;28.70;41.70;;;;;;5116979;28;20016;-72
2022/07/13 12:39:35;;;;;;;4.45;2.28;;;28.70;42.00;;;;;;5116945;28;20027;-73
2022/07/13 12:42:02;;;;;;;;;;;28.70;42.20;;;;;;5117485;28;20023;-72
2022/07/13 12:44:30;;;;;;;3.92;1.70;;;28.60;41.10;;;;;;5116909;28;19909;-72
2022/07/13 12:47:00;;;;;;;16.67;2.90;;;28.50;41.10;;;;;;5116841;28;20024;-72
2022/07/13 12:49:37;;;;;;;18.52;2.25;;;28.50;39.40;;;;;;5116819;28;20087;-72
2022/07/13 12:52:10;;;;;;;2.97;1.90;;;28.50;40.10;;;;;;5116901;28;20340;-72
2022/07/13 12:54:41;;;;;;;3.53;1.65;;;28.60;40.70;;;;;;5098755;28;20028;-72
2022/07/13 12:57:10;;;;;;;17.70;2.90;;;28.60;39.70;;;;;;5116620;28;20023;-72
2022/07/13 12:59:37;;;;;;;10.30;2.03;;;28.60;40.90;;;;;;5116300;28;20072;-73
2022/07/13 13:02:02;;;;;;;6.43;2.25;;;28.70;39.80;;;;;;5116517;28;20020;-72
2022/07/13 13:04:29;;;;;;;2.88;1.80;;;28.70;39.90;;;;;;5098685;28;20092;-72